Virgil, Illinois
Current Conditions -  °F | °C
As of 1:55 PM on Saturday 25 Oct 2014 (Local Time) from KDKB Reporting Station
Clear Clear  
Wind Chill: 69°   Ceiling: Unl
Heat Index: 69°   Visibility: 10mi
Dew Point: 35°   Wind: 14mph
Humidity: 29%   Direction: 290°WNW
Pressure: 29.96"   Gusts: 22mph
Location:  41.96°N, 88.54°W
Report Text: KDKB 251855Z AUTO 29012G19KT 10SM CLR 21/02 A2996 RMK AO2 T02060017
Loading
Personal Weather Stations






























Interactive Weather Map
Tropical Storm Tracking
New forecast layout! Learn more

10-Day Weather Forecast

Advertisements
Track Severe Weather on mobile